Time;durP1;ratioP1;P1;durP2;ratioP2;P2;SDS_P1;SDS_P2;PMS_P1;PMS_P2;Temp;Humidity;BMP_temperature;BMP_pressure;BME280_temperature;BME280_humidity;BME280_pressure;Samples;Min_cycle;Max_cycle;Signal;HPM_P1;HPM_P2
2021/09/20 00:02:12;;;;;;;1.38;1.27;;;13.50;90.80;;;;;;4951046;28;20038;-68
2021/09/20 00:04:38;;;;;;;1.13;1.05;;;13.50;90.90;;;;;;4948600;28;20098;-67
2021/09/20 00:07:03;;;;;;;1.00;1.00;;;13.50;90.80;;;;;;4950257;28;20066;-67
2021/09/20 00:09:29;;;;;;;1.00;1.00;;;13.50;90.80;;;;;;4955256;28;20027;-67
2021/09/20 00:11:55;;;;;;;1.30;1.20;;;13.50;90.90;;;;;;4947336;28;20039;-67
2021/09/20 00:14:20;;;;;;;1.38;1.27;;;13.40;90.90;;;;;;4950846;28;20041;-68
2021/09/20 00:16:46;;;;;;;1.85;1.13;;;13.40;90.90;;;;;;4950769;28;20445;-68
2021/09/20 00:19:11;;;;;;;0.82;0.82;;;13.40;90.80;;;;;;4950895;28;20114;-68
2021/09/20 00:21:37;;;;;;;1.10;1.00;;;13.40;90.90;;;;;;4945094;28;20034;-68
2021/09/20 00:24:03;;;;;;;1.05;1.00;;;13.40;90.80;;;;;;4951844;28;20059;-67
2021/09/20 00:26:29;;;;;;;2.00;0.90;;;13.50;90.80;;;;;;4947628;28;20027;-67
2021/09/20 00:28:55;;;;;;;0.80;0.80;;;13.50;90.90;;;;;;4945899;28;20528;-67
2021/09/20 00:31:21;;;;;;;0.93;0.93;;;13.50;91.00;;;;;;4950006;28;20066;-67
2021/09/20 00:33:47;;;;;;;0.80;0.80;;;13.50;90.90;;;;;;4952371;28;20063;-68
2021/09/20 00:36:12;;;;;;;0.90;0.90;;;13.50;90.90;;;;;;4948807;28;20042;-67
2021/09/20 00:38:38;;;;;;;0.88;0.85;;;13.50;90.90;;;;;;4947099;28;20031;-68
2021/09/20 00:41:04;;;;;;;1.20;0.90;;;13.40;90.90;;;;;;4950390;28;20038;-67
2021/09/20 00:43:30;;;;;;;1.05;1.00;;;13.40;90.90;;;;;;4949098;28;20038;-67
2021/09/20 00:45:55;;;;;;;1.15;1.05;;;13.50;91.00;;;;;;4945205;28;20149;-67
2021/09/20 00:48:21;;;;;;;1.95;1.08;;;13.50;91.00;;;;;;4947874;28;20031;-68
2021/09/20 00:50:47;;;;;;;1.45;1.30;;;13.40;91.20;;;;;;4945375;28;20432;-67
2021/09/20 00:53:13;;;;;;;1.20;1.10;;;13.40;91.00;;;;;;4946969;28;20128;-67
2021/09/20 00:55:40;;;;;;;1.30;1.20;;;13.40;91.00;;;;;;4947889;28;20027;-67
2021/09/20 00:58:08;;;;;;;1.15;1.15;;;13.40;91.10;;;;;;4942615;28;20025;-67
2021/09/20 01:00:34;;;;;;;1.25;1.15;;;13.50;91.20;;;;;;4943993;28;20439;-68
2021/09/20 01:03:00;;;;;;;1.25;1.15;;;13.40;91.20;;;;;;4946597;28;20066;-68
2021/09/20 01:05:26;;;;;;;1.25;1.15;;;13.50;91.30;;;;;;4951362;28;20069;-68
2021/09/20 01:07:51;;;;;;;2.75;1.25;;;13.40;91.40;;;;;;4943819;28;20046;-67
2021/09/20 01:10:17;;;;;;;1.50;1.27;;;13.40;91.50;;;;;;4948491;28;20043;-67
2021/09/20 01:12:43;;;;;;;1.60;1.50;;;13.40;91.40;;;;;;4946481;28;20601;-67
2021/09/20 01:15:09;;;;;;;1.40;1.30;;;13.30;91.50;;;;;;4962485;28;20027;-67
2021/09/20 01:17:34;;;;;;;1.80;1.63;;;13.30;91.50;;;;;;4956117;28;20027;-70
2021/09/20 01:20:01;;;;;;;1.60;1.50;;;13.30;91.40;;;;;;4949793;28;20496;-68
2021/09/20 01:22:28;;;;;;;1.90;1.75;;;13.30;91.40;;;;;;4946914;28;20544;-68
2021/09/20 01:24:54;;;;;;;1.65;1.55;;;13.30;91.30;;;;;;4945562;28;20126;-68
2021/09/20 01:27:21;;;;;;;1.92;1.77;;;13.30;91.30;;;;;;4946683;28;20778;-68
2021/09/20 01:29:47;;;;;;;2.55;1.77;;;13.30;91.20;;;;;;4946943;28;20023;-67
2021/09/20 01:32:14;;;;;;;2.00;1.75;;;13.30;91.30;;;;;;4945518;28;20039;-67
2021/09/20 01:34:40;;;;;;;1.92;1.83;;;13.20;91.20;;;;;;4946954;28;20126;-67
2021/09/20 01:37:05;;;;;;;1.75;1.65;;;13.20;91.30;;;;;;4946384;28;20114;-67
2021/09/20 01:39:34;;;;;;;2.20;2.00;;;13.20;91.30;;;;;;4947844;28;20034;-68
2021/09/20 01:42:00;;;;;;;1.95;1.65;;;13.20;91.40;;;;;;4946510;28;20384;-68
2021/09/20 01:44:26;;;;;;;2.00;1.80;;;13.20;91.30;;;;;;4944975;28;20035;-68
2021/09/20 01:46:54;;;;;;;2.22;2.08;;;13.20;91.40;;;;;;4948264;28;20035;-68
2021/09/20 01:49:21;;;;;;;1.80;1.70;;;13.20;91.40;;;;;;4948466;28;20035;-67
2021/09/20 01:51:48;;;;;;;2.00;1.80;;;13.20;91.40;;;;;;4942748;28;20068;-67
2021/09/20 01:54:14;;;;;;;1.75;1.65;;;13.20;91.50;;;;;;4945596;28;20154;-67
2021/09/20 01:56:41;;;;;;;1.70;1.60;;;13.20;91.60;;;;;;4945678;28;20039;-67
2021/09/20 01:59:08;;;;;;;1.90;1.80;;;13.20;91.50;;;;;;4944267;28;20028;-67
2021/09/20 02:01:33;;;;;;;2.40;1.77;;;13.20;91.40;;;;;;4945411;28;20039;-68
2021/09/20 02:03:59;;;;;;;2.75;1.48;;;13.20;91.40;;;;;;4947037;28;22596;-67
2021/09/20 02:06:26;;;;;;;1.85;1.40;;;13.20;91.40;;;;;;4947095;28;20432;-68
2021/09/20 02:08:53;;;;;;;1.75;1.65;;;13.30;91.40;;;;;;4945910;28;20039;-68
2021/09/20 02:11:22;;;;;;;1.55;1.45;;;13.20;91.50;;;;;;4949255;28;20500;-68
2021/09/20 02:13:48;;;;;;;2.60;1.55;;;13.20;91.70;;;;;;4945509;28;20031;-68
2021/09/20 02:16:15;;;;;;;4.55;3.42;;;13.20;92.00;;;;;;4948558;28;20469;-68
2021/09/20 02:18:41;;;;;;;4.68;3.63;;;13.10;91.50;;;;;;4948144;28;20107;-68
2021/09/20 02:21:07;;;;;;;6.88;4.28;;;13.00;91.20;;;;;;4950640;28;20031;-68
2021/09/20 02:23:33;;;;;;;6.60;4.38;;;12.80;91.10;;;;;;4949063;28;20111;-68
2021/09/20 02:26:00;;;;;;;5.78;4.05;;;12.70;91.20;;;;;;4951141;28;20027;-68
2021/09/20 02:28:26;;;;;;;7.35;4.20;;;12.70;91.40;;;;;;4955898;28;20034;-68
2021/09/20 02:30:52;;;;;;;5.03;4.00;;;12.70;91.50;;;;;;4949527;28;20086;-67
2021/09/20 02:33:18;;;;;;;12.95;4.72;;;12.70;91.60;;;;;;4950980;28;20035;-68
2021/09/20 02:35:43;;;;;;;6.50;4.80;;;12.70;91.60;;;;;;4951249;28;20441;-68
2021/09/20 02:38:09;;;;;;;6.47;4.00;;;12.70;91.70;;;;;;4962679;28;20070;-68
2021/09/20 02:40:35;;;;;;;5.78;3.72;;;12.70;91.70;;;;;;4951638;28;20030;-68
2021/09/20 02:43:00;;;;;;;6.30;3.97;;;12.80;91.80;;;;;;4948998;28;20023;-68
2021/09/20 02:45:26;;;;;;;7.43;3.90;;;12.70;92.00;;;;;;4950223;28;20042;-67
2021/09/20 02:47:52;;;;;;;7.63;4.20;;;12.80;91.70;;;;;;4950996;28;20097;-67
2021/09/20 02:50:18;;;;;;;6.30;4.43;;;12.80;91.60;;;;;;4948376;28;20032;-67
2021/09/20 02:52:44;;;;;;;7.07;4.07;;;12.70;91.70;;;;;;4964686;28;20071;-67
2021/09/20 02:55:11;;;;;;;5.30;3.70;;;12.70;91.70;;;;;;4949079;28;20121;-68
2021/09/20 02:57:36;;;;;;;7.22;4.57;;;12.70;91.80;;;;;;4948449;28;20107;-67
2021/09/20 03:00:07;;;;;;;8.30;4.72;;;12.80;91.60;;;;;;4952664;28;20035;-68
2021/09/20 03:02:33;;;;;;;6.68;4.22;;;12.70;91.60;;;;;;4948716;28;20059;-67
2021/09/20 03:04:59;;;;;;;7.70;4.93;;;12.80;91.50;;;;;;4949570;28;20065;-67
2021/09/20 03:07:24;;;;;;;6.18;4.50;;;12.90;91.30;;;;;;4946031;28;20019;-67
2021/09/20 03:09:50;;;;;;;6.13;3.85;;;12.80;91.30;;;;;;4951419;28;20075;-68
2021/09/20 03:12:16;;;;;;;5.97;4.15;;;12.90;91.40;;;;;;4952642;28;20143;-67
2021/09/20 03:14:42;;;;;;;5.38;3.95;;;12.90;91.50;;;;;;4960659;28;20031;-69
2021/09/20 03:17:07;;;;;;;7.82;5.63;;;12.90;91.80;;;;;;4950970;28;20368;-68
2021/09/20 03:19:33;;;;;;;8.18;4.88;;;12.90;91.60;;;;;;4949146;28;20027;-69
2021/09/20 03:21:59;;;;;;;8.05;4.72;;;12.90;91.60;;;;;;4954425;28;20031;-68
2021/09/20 03:24:24;;;;;;;6.03;3.97;;;12.90;91.70;;;;;;4948309;28;20070;-68
2021/09/20 03:26:50;;;;;;;7.03;4.57;;;12.90;91.80;;;;;;4950376;28;20083;-68
2021/09/20 03:29:16;;;;;;;7.53;4.43;;;12.90;91.60;;;;;;4951782;28;20043;-68
2021/09/20 03:31:42;;;;;;;8.10;4.68;;;12.90;91.50;;;;;;4950442;28;20062;-69
2021/09/20 03:34:07;;;;;;;6.90;4.88;;;12.90;91.70;;;;;;4951461;28;20391;-69
2021/09/20 03:36:33;;;;;;;5.88;4.20;;;12.90;91.90;;;;;;4966006;28;20591;-70
2021/09/20 03:38:59;;;;;;;7.45;4.22;;;12.90;92.00;;;;;;4948672;28;20041;-68
2021/09/20 03:41:25;;;;;;;7.18;4.88;;;12.90;92.00;;;;;;4946540;28;20015;-68
2021/09/20 03:43:51;;;;;;;7.72;4.82;;;12.90;92.00;;;;;;4958124;28;20499;-68
2021/09/20 03:46:16;;;;;;;9.30;4.60;;;12.90;92.20;;;;;;4948746;28;20093;-69
2021/09/20 03:48:42;;;;;;;7.57;4.95;;;12.80;92.30;;;;;;4950140;28;20039;-68
2021/09/20 03:51:08;;;;;;;6.30;4.22;;;12.80;92.30;;;;;;4950963;28;20384;-69
2021/09/20 03:53:36;;;;;;;6.45;4.30;;;12.90;92.40;;;;;;4949161;28;20063;-70
2021/09/20 03:56:03;;;;;;;7.97;4.80;;;12.90;92.00;;;;;;4951921;28;20991;-69
2021/09/20 03:58:28;;;;;;;7.60;4.38;;;12.90;92.00;;;;;;4948767;28;20025;-68
2021/09/20 04:00:54;;;;;;;5.70;4.30;;;12.90;92.00;;;;;;4948346;28;20572;-69
2021/09/20 04:03:19;;;;;;;7.60;5.05;;;12.80;92.20;;;;;;4950478;28;20757;-69
2021/09/20 04:05:45;;;;;;;6.15;4.22;;;12.80;92.20;;;;;;4951362;28;20053;-69
2021/09/20 04:08:14;;;;;;;7.85;5.30;;;12.80;92.00;;;;;;4952256;28;20028;-69
2021/09/20 04:10:40;;;;;;;8.93;5.30;;;12.80;92.00;;;;;;4962747;28;20035;-68
2021/09/20 04:13:06;;;;;;;12.45;4.68;;;12.80;92.30;;;;;;4952549;28;20773;-68
2021/09/20 04:15:32;;;;;;;8.90;5.07;;;12.70;92.40;;;;;;4963605;28;20573;-69
2021/09/20 04:17:57;;;;;;;10.07;5.20;;;12.70;92.50;;;;;;4948555;28;20035;-68
2021/09/20 04:20:23;;;;;;;7.45;4.90;;;12.80;92.60;;;;;;4946955;28;20030;-69
2021/09/20 04:22:49;;;;;;;11.18;5.57;;;12.70;92.50;;;;;;4950169;28;20090;-68
2021/09/20 04:25:14;;;;;;;11.13;5.90;;;12.70;92.40;;;;;;4948826;28;20047;-69
2021/09/20 04:27:40;;;;;;;8.82;5.63;;;12.60;92.30;;;;;;4945617;28;20041;-68
2021/09/20 04:30:07;;;;;;;8.57;5.00;;;12.60;92.50;;;;;;4954639;28;20061;-68
2021/09/20 04:32:33;;;;;;;6.85;5.15;;;12.60;92.60;;;;;;4951766;28;20098;-68
2021/09/20 04:34:59;;;;;;;8.73;5.38;;;12.60;92.70;;;;;;4947597;28;20031;-69
2021/09/20 04:37:24;;;;;;;9.82;5.40;;;12.60;92.50;;;;;;4965279;28;20027;-69
2021/09/20 04:39:50;;;;;;;9.50;5.50;;;12.60;92.50;;;;;;4946995;28;20071;-69
2021/09/20 04:42:15;;;;;;;8.60;5.43;;;12.50;92.50;;;;;;4944764;28;20042;-69
2021/09/20 04:44:42;;;;;;;8.45;5.57;;;12.50;92.60;;;;;;4948081;28;20027;-69
2021/09/20 04:47:07;;;;;;;7.78;4.95;;;12.60;92.50;;;;;;4949719;28;20062;-69
2021/09/20 04:49:33;;;;;;;9.70;5.68;;;12.60;92.50;;;;;;4945513;28;20063;-68
2021/09/20 04:51:59;;;;;;;10.27;6.47;;;12.60;92.60;;;;;;4950151;28;20066;-69
2021/09/20 04:54:25;;;;;;;18.25;8.57;;;12.60;92.60;;;;;;4966537;28;20589;-69
2021/09/20 04:56:51;;;;;;;19.40;8.30;;;12.60;92.20;;;;;;4951708;28;20030;-69
2021/09/20 04:59:16;;;;;;;18.30;7.70;;;12.70;92.20;;;;;;4948085;28;20023;-69
2021/09/20 05:01:42;;;;;;;16.35;7.30;;;12.60;92.00;;;;;;4950638;28;20086;-69
2021/09/20 05:04:09;;;;;;;12.95;6.90;;;12.70;92.00;;;;;;4954947;28;20039;-69
2021/09/20 05:06:35;;;;;;;17.80;8.23;;;12.70;91.70;;;;;;4948540;28;20055;-69
2021/09/20 05:09:02;;;;;;;14.73;7.18;;;12.70;92.10;;;;;;4945720;28;20465;-69
2021/09/20 05:11:29;;;;;;;16.60;8.15;;;12.70;92.10;;;;;;4947609;28;20035;-69
2021/09/20 05:13:54;;;;;;;15.50;7.47;;;12.80;92.10;;;;;;4943976;28;20051;-69
2021/09/20 05:16:20;;;;;;;12.27;6.55;;;12.70;92.10;;;;;;4943889;28;20033;-69
2021/09/20 05:18:46;;;;;;;19.38;7.68;;;12.70;92.20;;;;;;4947670;28;20030;-68
2021/09/20 05:21:11;;;;;;;16.27;7.30;;;12.80;92.30;;;;;;4947566;28;20027;-68
2021/09/20 05:23:37;;;;;;;12.50;6.68;;;12.80;92.20;;;;;;4945048;28;20103;-68
2021/09/20 05:26:03;;;;;;;11.68;5.85;;;12.80;92.20;;;;;;4946476;28;20056;-69
2021/09/20 05:28:28;;;;;;;11.15;5.97;;;12.90;92.20;;;;;;4949833;28;20035;-68
2021/09/20 05:30:54;;;;;;;10.38;6.00;;;12.90;92.20;;;;;;4946501;28;20797;-69
2021/09/20 05:33:20;;;;;;;9.30;5.35;;;12.90;92.30;;;;;;4946121;28;20551;-69
2021/09/20 05:35:46;;;;;;;9.88;5.28;;;12.90;92.20;;;;;;4946399;28;20027;-68
2021/09/20 05:38:14;;;;;;;9.25;5.97;;;12.90;92.00;;;;;;4943741;28;20026;-69
2021/09/20 05:40:41;;;;;;;9.07;6.00;;;12.90;92.00;;;;;;4945396;28;20027;-69
2021/09/20 05:43:06;;;;;;;8.93;5.85;;;12.90;91.90;;;;;;4943521;29;20052;-69
2021/09/20 05:45:32;;;;;;;10.35;6.00;;;12.90;91.80;;;;;;4961147;28;20065;-68
2021/09/20 05:47:59;;;;;;;8.25;5.18;;;13.00;91.60;;;;;;4947082;28;20039;-68
2021/09/20 05:50:26;;;;;;;9.65;6.45;;;13.00;91.60;;;;;;4945582;28;20127;-68
2021/09/20 05:52:51;;;;;;;9.30;5.65;;;13.00;91.50;;;;;;4945142;28;20539;-68
2021/09/20 05:55:17;;;;;;;10.25;5.90;;;12.90;91.60;;;;;;4943309;28;20031;-69
2021/09/20 05:57:43;;;;;;;14.18;6.55;;;13.00;91.40;;;;;;4948774;28;20034;-68
2021/09/20 06:00:10;;;;;;;9.98;6.05;;;12.90;91.00;;;;;;4950375;28;20028;-68
2021/09/20 06:02:36;;;;;;;10.38;6.15;;;12.90;91.20;;;;;;4950206;28;20055;-69
2021/09/20 06:05:02;;;;;;;10.70;6.38;;;12.90;91.40;;;;;;4950745;28;20484;-68
2021/09/20 06:07:27;;;;;;;9.45;6.10;;;13.00;91.50;;;;;;4949686;28;20035;-69
2021/09/20 06:09:53;;;;;;;9.95;5.72;;;13.00;91.30;;;;;;4953024;28;20039;-69
2021/09/20 06:12:20;;;;;;;12.02;6.03;;;13.00;91.50;;;;;;4951284;28;20036;-69
2021/09/20 06:14:46;;;;;;;13.55;6.15;;;13.00;91.60;;;;;;4948238;28;20032;-69
2021/09/20 06:17:12;;;;;;;12.65;6.50;;;13.00;91.50;;;;;;4954619;28;20019;-68
2021/09/20 06:19:37;;;;;;;12.52;7.05;;;13.00;91.50;;;;;;4951260;28;20090;-69
2021/09/20 06:22:03;;;;;;;12.93;7.35;;;13.10;91.60;;;;;;4951243;28;20027;-69
2021/09/20 06:24:29;;;;;;;12.75;6.07;;;13.00;91.60;;;;;;4946679;28;20052;-69
2021/09/20 06:26:55;;;;;;;13.73;6.72;;;13.00;91.50;;;;;;4946130;28;20102;-68
2021/09/20 06:29:21;;;;;;;15.65;7.63;;;13.00;91.60;;;;;;4949095;28;20030;-69
2021/09/20 06:31:47;;;;;;;15.02;7.50;;;13.00;91.60;;;;;;4949696;28;20041;-69
2021/09/20 06:34:13;;;;;;;14.57;7.07;;;13.00;91.60;;;;;;4949731;28;20126;-69
2021/09/20 06:36:40;;;;;;;14.68;7.43;;;13.00;91.60;;;;;;4965333;28;20049;-69
2021/09/20 06:39:08;;;;;;;13.98;7.22;;;13.10;91.50;;;;;;4950111;28;20023;-68
2021/09/20 06:41:34;;;;;;;13.30;7.03;;;13.00;91.70;;;;;;4946508;28;20548;-68
2021/09/20 06:44:00;;;;;;;12.45;6.15;;;13.00;91.60;;;;;;4939553;28;20045;-69
2021/09/20 06:46:26;;;;;;;14.90;6.78;;;13.00;91.60;;;;;;4949574;28;20118;-68
2021/09/20 06:48:52;;;;;;;15.23;7.00;;;13.00;91.70;;;;;;4953570;28;20031;-68
2021/09/20 06:51:18;;;;;;;11.32;6.40;;;13.00;91.70;;;;;;4951649;28;20029;-68
2021/09/20 06:53:43;;;;;;;13.48;7.40;;;13.00;91.40;;;;;;4951525;28;20507;-68
2021/09/20 06:56:09;;;;;;;12.23;6.95;;;13.00;91.40;;;;;;4951585;28;20110;-67
2021/09/20 06:58:35;;;;;;;12.70;6.00;;;13.00;91.40;;;;;;4951334;28;20023;-67
2021/09/20 07:01:01;;;;;;;12.10;7.22;;;13.00;91.20;;;;;;4949438;28;20489;-67
2021/09/20 07:03:26;;;;;;;11.13;6.20;;;13.00;91.20;;;;;;4950382;28;20031;-67
2021/09/20 07:05:52;;;;;;;13.32;6.75;;;13.00;91.10;;;;;;4951546;28;20027;-67
2021/09/20 07:08:18;;;;;;;14.75;7.43;;;13.10;91.20;;;;;;4950426;28;20027;-67
2021/09/20 07:10:44;;;;;;;12.65;6.68;;;13.10;91.10;;;;;;4951356;28;20246;-67
2021/09/20 07:13:09;;;;;;;14.55;7.22;;;13.10;91.10;;;;;;4952239;28;20034;-67
2021/09/20 07:15:38;;;;;;;11.48;6.80;;;13.20;91.00;;;;;;4967755;28;20054;-67
2021/09/20 07:18:05;;;;;;;13.65;6.90;;;13.20;90.90;;;;;;4949504;28;20114;-67
2021/09/20 07:20:31;;;;;;;14.45;6.85;;;13.20;91.10;;;;;;4949392;28;20034;-67
2021/09/20 07:22:57;;;;;;;15.65;7.85;;;13.20;91.20;;;;;;4950595;28;20039;-67
2021/09/20 07:25:22;;;;;;;12.38;7.05;;;13.20;91.20;;;;;;4951425;28;20031;-67
2021/09/20 07:27:48;;;;;;;13.98;6.75;;;13.20;91.10;;;;;;4950685;28;20130;-67
2021/09/20 07:30:17;;;;;;;12.52;6.70;;;13.30;91.20;;;;;;4964304;28;20461;-68
2021/09/20 07:32:47;;;;;;;16.33;7.68;;;13.30;91.20;;;;;;4946918;28;20605;-68
2021/09/20 07:35:16;;;;;;;13.50;7.10;;;13.30;91.20;;;;;;4950609;28;20032;-68
2021/09/20 07:37:50;;;;;;;;;;;13.30;91.00;;;;;;4950441;28;20454;-67
2021/09/20 07:40:16;;;;;;;12.85;6.80;;;13.30;90.90;;;;;;4952096;28;20005;-67
2021/09/20 07:42:43;;;;;;;15.07;7.25;;;13.40;91.10;;;;;;4948796;28;20764;-67
2021/09/20 07:45:10;;;;;;;13.07;7.00;;;13.40;91.00;;;;;;4948039;28;20031;-67
2021/09/20 07:47:37;;;;;;;14.00;7.30;;;13.40;90.90;;;;;;4949511;28;20130;-67
2021/09/20 07:50:04;;;;;;;15.20;7.40;;;13.40;91.30;;;;;;4946944;28;20031;-68
2021/09/20 07:52:30;;;;;;;15.83;7.03;;;13.40;91.30;;;;;;4949493;28;20035;-68
2021/09/20 07:54:57;;;;;;;12.77;6.35;;;13.40;91.40;;;;;;4959627;28;20043;-67
2021/09/20 07:57:23;;;;;;;11.77;6.97;;;13.40;91.40;;;;;;4947329;28;20015;-67
2021/09/20 07:59:48;;;;;;;12.73;6.13;;;13.40;91.40;;;;;;4949124;28;20023;-68
2021/09/20 08:02:14;;;;;;;7.90;5.07;;;13.40;91.40;;;;;;4949678;28;20038;-67
2021/09/20 08:04:40;;;;;;;8.55;5.65;;;13.40;91.30;;;;;;4963356;28;20094;-67
2021/09/20 08:07:05;;;;;;;11.23;5.55;;;13.40;91.40;;;;;;4949589;28;20051;-68
2021/09/20 08:09:31;;;;;;;13.82;6.60;;;13.40;91.40;;;;;;4949260;28;20054;-69
2021/09/20 08:11:57;;;;;;;13.25;6.25;;;13.40;91.30;;;;;;4949467;28;20042;-68
2021/09/20 08:14:22;;;;;;;11.23;6.20;;;13.40;91.10;;;;;;4948869;28;20039;-68
2021/09/20 08:16:48;;;;;;;11.75;5.95;;;13.40;91.20;;;;;;4949958;28;20685;-67
2021/09/20 08:19:13;;;;;;;12.60;7.22;;;13.40;91.60;;;;;;4948031;28;20495;-68
2021/09/20 08:21:39;;;;;;;13.85;6.55;;;13.40;91.50;;;;;;4963160;28;20057;-68
2021/09/20 08:24:05;;;;;;;12.60;6.68;;;13.40;91.10;;;;;;4948113;28;20098;-67
2021/09/20 08:26:31;;;;;;;12.35;7.10;;;13.40;91.30;;;;;;4950602;28;20034;-68
2021/09/20 08:28:57;;;;;;;14.57;7.65;;;13.40;91.40;;;;;;4947783;28;20105;-68
2021/09/20 08:31:22;;;;;;;16.40;7.93;;;13.40;91.30;;;;;;4948218;28;20402;-68
2021/09/20 08:33:48;;;;;;;14.13;7.93;;;13.40;91.60;;;;;;4966152;28;20081;-68
2021/09/20 08:36:14;;;;;;;16.17;7.85;;;13.40;91.60;;;;;;4950860;28;20027;-67
2021/09/20 08:38:40;;;;;;;13.18;7.03;;;13.40;91.50;;;;;;4945374;28;20031;-67
2021/09/20 08:41:06;;;;;;;14.93;7.35;;;13.50;91.30;;;;;;4945551;28;20035;-68
2021/09/20 08:43:32;;;;;;;13.60;7.45;;;13.50;91.30;;;;;;4946953;28;20050;-67
2021/09/20 08:46:04;;;;;;;13.95;7.20;;;13.50;91.20;;;;;;4949260;28;20038;-68
2021/09/20 08:48:38;;;;;;;16.60;7.43;;;13.60;91.20;;;;;;4945233;28;20381;-68
2021/09/20 08:51:03;;;;;;;15.13;7.47;;;13.60;91.20;;;;;;4943958;28;20067;-67
2021/09/20 08:53:29;;;;;;;13.32;7.47;;;13.60;91.00;;;;;;4950108;28;20066;-67
2021/09/20 08:55:55;;;;;;;11.55;7.43;;;13.60;90.60;;;;;;4962920;28;22186;-68
2021/09/20 08:58:20;;;;;;;12.25;7.18;;;13.60;90.80;;;;;;4949149;28;20027;-67
2021/09/20 09:00:46;;;;;;;13.27;6.70;;;13.60;90.90;;;;;;4946856;28;20503;-67
2021/09/20 09:03:18;;;;;;;14.45;7.00;;;13.60;91.10;;;;;;4948845;28;20034;-68
2021/09/20 09:05:46;;;;;;;11.15;6.28;;;13.60;90.60;;;;;;4947480;28;20512;-68
2021/09/20 09:08:14;;;;;;;;;;;13.60;90.70;;;;;;4950047;28;20452;-68
2021/09/20 09:10:39;;;;;;;11.13;6.68;;;13.60;90.70;;;;;;4948273;28;19921;-68
2021/09/20 09:13:06;;;;;;;13.73;6.35;;;13.70;90.60;;;;;;4949959;28;20026;-68
2021/09/20 09:15:34;;;;;;;14.38;7.13;;;13.70;90.60;;;;;;4945539;28;20058;-68
2021/09/20 09:18:01;;;;;;;11.98;7.13;;;13.80;90.60;;;;;;4947999;28;20038;-67
2021/09/20 09:20:33;;;;;;;11.23;6.80;;;13.80;90.50;;;;;;4949733;28;20079;-67
2021/09/20 09:23:03;;;;;;;11.13;6.63;;;13.80;90.40;;;;;;4945567;28;20031;-67
2021/09/20 09:25:36;;;;;;;11.00;6.68;;;13.80;90.50;;;;;;4949414;28;20066;-67
2021/09/20 09:28:21;;;;;;;9.82;6.30;;;13.80;90.40;;;;;;4945171;28;20050;-67
2021/09/20 09:30:50;;;;;;;9.70;5.90;;;13.90;90.50;;;;;;4952220;28;20094;-67
2021/09/20 09:33:17;;;;;;;10.13;6.38;;;13.90;90.40;;;;;;4947958;28;20488;-68
2021/09/20 09:35:52;;;;;;;11.52;6.32;;;13.90;90.30;;;;;;4943491;28;20062;-68
2021/09/20 09:38:19;;;;;;;12.45;6.57;;;13.90;90.60;;;;;;4948652;28;20058;-68
2021/09/20 09:41:02;;;;;;;12.55;6.53;;;13.90;90.50;;;;;;4949196;28;20035;-68
2021/09/20 09:43:37;;;;;;;10.00;6.05;;;13.90;90.40;;;;;;4944970;28;20383;-68
2021/09/20 09:46:19;;;;;;;11.70;7.07;;;13.90;90.60;;;;;;4943658;28;20208;-68
2021/09/20 09:48:45;;;;;;;11.45;6.40;;;13.90;90.30;;;;;;4950928;28;20074;-67
2021/09/20 09:51:12;;;;;;;12.25;6.28;;;14.00;90.10;;;;;;4949628;28;20028;-68
2021/09/20 09:53:43;;;;;;;11.65;5.95;;;14.00;90.00;;;;;;4946841;28;20039;-67
2021/09/20 09:56:17;;;;;;;10.93;6.07;;;14.00;90.50;;;;;;4946114;28;20049;-67
2021/09/20 09:59:05;;;;;;;9.48;6.30;;;14.00;90.10;;;;;;4947336;28;20031;-67
2021/09/20 10:01:31;;;;;;;10.53;6.37;;;14.00;89.80;;;;;;4946189;28;20051;-67
2021/09/20 10:04:08;;;;;;;12.60;6.30;;;14.10;89.00;;;;;;4949236;28;20039;-67
2021/09/20 10:06:37;;;;;;;10.23;5.95;;;14.10;89.20;;;;;;4952301;28;20030;-67
2021/09/20 10:09:03;;;;;;;14.80;7.07;;;14.10;90.20;;;;;;4947259;28;20035;-67
2021/09/20 10:11:29;;;;;;;11.73;7.32;;;14.10;90.00;;;;;;4953060;28;20023;-67
2021/09/20 10:13:54;;;;;;;13.27;7.50;;;14.10;88.40;;;;;;4946993;28;20059;-68
2021/09/20 10:16:20;;;;;;;14.27;7.60;;;14.00;89.70;;;;;;4948610;28;20075;-69
2021/09/20 10:18:46;;;;;;;12.63;6.93;;;14.00;89.20;;;;;;4949435;28;20421;-67
2021/09/20 10:21:11;;;;;;;13.70;7.40;;;14.10;90.30;;;;;;4947377;28;20038;-67
2021/09/20 10:23:39;;;;;;;17.95;7.78;;;14.00;90.00;;;;;;4946528;28;20039;-68
2021/09/20 10:26:05;;;;;;;13.65;7.53;;;13.90;89.90;;;;;;4944628;28;20028;-67
2021/09/20 10:28:30;;;;;;;14.35;7.90;;;13.90;89.40;;;;;;4946250;28;20035;-67
2021/09/20 10:30:56;;;;;;;13.98;7.15;;;13.90;89.60;;;;;;4944514;28;20312;-67
2021/09/20 10:33:27;;;;;;;15.07;7.68;;;13.90;90.40;;;;;;4948209;28;20023;-67
2021/09/20 10:35:54;;;;;;;16.15;7.63;;;13.90;90.10;;;;;;4961816;28;20028;-69
2021/09/20 10:38:20;;;;;;;13.63;7.17;;;13.90;90.70;;;;;;4946360;28;20102;-67
2021/09/20 10:41:13;;;;;;;13.70;7.22;;;13.90;89.00;;;;;;4946518;28;20357;-68
2021/09/20 10:43:44;;;;;;;14.50;7.72;;;13.90;89.30;;;;;;4951152;28;20023;-67
2021/09/20 10:46:21;;;;;;;13.00;7.20;;;14.00;89.50;;;;;;4947365;28;20035;-67
2021/09/20 10:48:50;;;;;;;13.95;7.15;;;14.00;90.10;;;;;;4949443;28;20027;-67
2021/09/20 10:51:17;;;;;;;13.25;7.30;;;14.10;90.10;;;;;;4952835;28;20027;-67
2021/09/20 10:53:44;;;;;;;14.02;7.88;;;14.10;89.60;;;;;;4965690;28;20127;-67
2021/09/20 10:56:14;;;;;;;12.48;7.22;;;14.10;89.00;;;;;;4951563;28;20062;-67
2021/09/20 10:59:08;;;;;;;12.27;7.15;;;14.20;88.70;;;;;;4951044;28;20078;-66
2021/09/20 11:01:35;;;;;;;11.93;6.97;;;14.20;88.20;;;;;;4965093;28;20505;-67
2021/09/20 11:04:09;;;;;;;11.52;6.22;;;14.30;87.80;;;;;;4948887;28;20046;-67
2021/09/20 11:06:40;;;;;;;11.07;6.25;;;14.30;87.30;;;;;;4953395;28;20041;-67
2021/09/20 11:09:05;;;;;;;11.07;5.95;;;14.30;87.30;;;;;;4963232;28;20177;-68
2021/09/20 11:11:37;;;;;;;15.05;7.15;;;14.40;86.80;;;;;;4952406;28;20106;-67
2021/09/20 11:14:04;;;;;;;13.63;6.70;;;14.30;86.80;;;;;;4951706;28;20524;-68
2021/09/20 11:16:56;;;;;;;16.73;7.60;;;14.40;87.60;;;;;;4946770;29;20046;-68
2021/09/20 11:19:25;;;;;;;14.88;7.28;;;14.40;87.30;;;;;;4950259;28;20054;-69
2021/09/20 11:22:05;;;;;;;11.73;6.30;;;14.40;86.00;;;;;;4948836;28;20023;-68
2021/09/20 11:24:36;;;;;;;11.10;6.60;;;14.40;87.30;;;;;;4964852;28;20058;-68
2021/09/20 11:27:04;;;;;;;12.40;6.50;;;14.50;86.80;;;;;;4946513;28;20065;-68
2021/09/20 11:29:30;;;;;;;;;;;14.50;85.30;;;;;;4949648;28;20034;-68
2021/09/20 11:31:57;;;;;;;8.15;4.93;;;14.50;86.40;;;;;;4946632;28;20459;-68
2021/09/20 11:34:52;;;;;;;8.75;5.07;;;14.40;85.80;;;;;;4950496;28;20074;-68
2021/09/20 11:37:20;;;;;;;8.02;4.05;;;14.40;82.30;;;;;;4947269;28;20023;-68
2021/09/20 11:39:45;;;;;;;7.93;4.63;;;14.30;83.00;;;;;;4949039;28;20023;-68
2021/09/20 11:42:15;;;;;;;7.85;4.82;;;14.40;83.20;;;;;;4961879;28;20477;-69
2021/09/20 11:44:53;;;;;;;6.70;4.55;;;14.40;83.10;;;;;;4950648;28;20106;-69
2021/09/20 11:47:21;;;;;;;6.95;4.00;;;14.30;80.80;;;;;;4946381;28;20109;-69
2021/09/20 11:49:50;;;;;;;6.38;3.83;;;14.30;84.00;;;;;;4950624;28;20118;-69
2021/09/20 11:52:35;;;;;;;8.30;4.40;;;14.40;82.00;;;;;;4951961;28;20023;-68
2021/09/20 11:55:02;;;;;;;7.72;4.90;;;14.40;82.50;;;;;;4950731;28;20767;-69
2021/09/20 11:57:33;;;;;;;7.85;4.43;;;14.40;84.70;;;;;;4947786;28;20082;-69
2021/09/20 12:00:04;;;;;;;7.65;4.03;;;14.40;81.20;;;;;;4952202;28;20085;-68
2021/09/20 12:02:45;;;;;;;6.03;3.63;;;14.40;80.20;;;;;;4947272;28;20035;-70
2021/09/20 12:05:38;;;;;;;8.68;4.63;;;14.40;80.30;;;;;;4945130;28;20027;-69
2021/09/20 12:08:06;;;;;;;7.93;4.50;;;14.40;79.40;;;;;;4948308;28;20039;-69
2021/09/20 12:10:39;;;;;;;;;;;14.40;82.10;;;;;;4949503;28;20448;-68
2021/09/20 12:13:08;;;;;;;6.55;4.25;;;14.40;80.20;;;;;;4949204;28;20356;-69
2021/09/20 12:15:38;;;;;;;9.10;4.45;;;14.50;83.10;;;;;;4951373;28;20035;-68
2021/09/20 12:18:09;;;;;;;6.55;4.03;;;14.60;80.10;;;;;;4953372;28;20031;-68
2021/09/20 12:20:43;;;;;;;6.15;3.88;;;14.60;78.90;;;;;;4946260;28;20038;-68
2021/09/20 12:23:09;;;;;;;7.60;4.18;;;14.60;82.70;;;;;;4946766;28;20102;-67
2021/09/20 12:26:01;;;;;;;8.93;4.40;;;14.70;82.80;;;;;;4951797;28;20030;-67
2021/09/20 12:28:32;;;;;;;6.45;4.28;;;14.70;82.90;;;;;;4949877;28;20035;-68
2021/09/20 12:31:13;;;;;;;5.70;4.13;;;14.80;82.70;;;;;;4964250;28;20571;-67
2021/09/20 12:34:01;;;;;;;7.70;4.10;;;14.70;81.90;;;;;;4951279;28;20027;-67
2021/09/20 12:36:32;;;;;;;9.48;4.60;;;14.70;80.70;;;;;;4948179;28;20440;-67
2021/09/20 12:39:19;;;;;;;7.10;4.28;;;14.70;83.70;;;;;;4965274;28;20484;-67
2021/09/20 12:41:46;;;;;;;6.90;4.25;;;14.80;81.10;;;;;;4949402;28;20019;-67
2021/09/20 12:44:14;;;;;;;10.27;4.80;;;14.80;82.50;;;;;;4965392;28;20023;-67
2021/09/20 12:46:41;;;;;;;7.32;5.00;;;14.80;81.20;;;;;;4944831;28;20042;-68